createdAt,value
2022-11-24T00:01:07.441Z,100300.97
2022-11-24T00:03:36.675Z,100310.97
2022-11-24T00:06:05.079Z,100304.53
2022-11-24T00:08:31.666Z,100313.09
2022-11-24T00:11:06.612Z,100308.53
2022-11-24T00:13:34.378Z,100317.72
2022-11-24T00:16:11.978Z,100313.13
2022-11-24T00:18:40.387Z,100328.44
2022-11-24T00:21:09.611Z,100325.88
2022-11-24T00:23:36.398Z,100322.00
2022-11-24T00:26:14.802Z,100329.28
2022-11-24T00:28:42.795Z,100337.16
2022-11-24T00:31:21.720Z,100314.56
2022-11-24T00:33:50.236Z,100316.41
2022-11-24T00:36:17.855Z,100312.59
2022-11-24T00:38:47.250Z,100321.16
2022-11-24T00:41:16.556Z,100314.72
2022-11-24T00:43:43.092Z,100331.44
2022-11-24T00:46:12.290Z,100331.59
2022-11-24T00:48:39.038Z,100330.00
2022-11-24T00:51:08.524Z,100325.13
2022-11-24T00:53:35.467Z,100322.00
2022-11-24T00:56:06.764Z,100309.44
2022-11-24T00:58:36.508Z,100324.72
2022-11-24T01:01:09.385Z,100328.59
2022-11-24T01:03:36.498Z,100330.56
2022-11-24T01:06:08.601Z,100352.56
2022-11-24T01:08:37.726Z,100343.16
2022-11-24T01:11:19.509Z,100345.59
2022-11-24T01:13:51.676Z,100355.28
2022-11-24T01:16:38.721Z,100350.16
2022-11-24T01:19:05.291Z,100359.44
2022-11-24T01:21:34.144Z,100358.59
2022-11-24T01:24:00.765Z,100361.16
2022-11-24T01:26:27.368Z,100362.72
2022-11-24T01:28:56.054Z,100368.31
2022-11-24T01:31:23.515Z,100364.59
2022-11-24T01:33:50.752Z,100357.44
2022-11-24T01:36:19.959Z,100378.03
2022-11-24T01:38:46.518Z,100362.31
2022-11-24T01:41:19.733Z,100372.31
2022-11-24T01:43:49.217Z,100370.31
2022-11-24T01:46:31.306Z,100381.88
2022-11-24T01:49:33.450Z,100376.72
2022-11-24T01:52:07.420Z,100385.00
2022-11-24T01:54:38.277Z,100387.44
2022-11-24T01:57:34.589Z,100388.63
2022-11-24T02:00:12.907Z,100387.88
2022-11-24T02:02:44.465Z,100391.03
2022-11-24T02:05:44.330Z,100393.16
2022-11-24T02:08:24.892Z,100392.03
2022-11-24T02:10:55.093Z,100405.19
2022-11-24T02:13:24.889Z,100405.75
2022-11-24T02:15:53.142Z,100407.47
2022-11-24T02:18:19.849Z,100400.75
2022-11-24T02:20:48.609Z,100412.63
2022-11-24T02:23:33.574Z,100424.06
2022-11-24T02:26:28.104Z,100420.44
2022-11-24T02:28:57.190Z,100423.50
2022-11-24T02:31:23.796Z,100408.47
2022-11-24T02:33:51.215Z,100424.19
2022-11-24T02:36:17.750Z,100425.03
2022-11-24T02:38:44.363Z,100428.59
2022-11-24T02:41:16.731Z,100423.03
2022-11-24T02:43:47.007Z,100437.34
2022-11-24T02:46:18.368Z,100409.72
2022-11-24T02:48:44.863Z,100420.31
2022-11-24T02:51:13.875Z,100426.34
2022-11-24T02:53:40.377Z,100435.19
2022-11-24T02:56:07.276Z,100432.47
2022-11-24T02:58:33.928Z,100439.75
2022-11-24T03:01:02.702Z,100423.91
2022-11-24T03:03:29.368Z,100450.06
2022-11-24T03:05:55.936Z,100441.47
2022-11-24T03:08:22.517Z,100430.91
2022-11-24T03:10:49.294Z,100441.19
2022-11-24T03:13:15.976Z,100438.75
2022-11-24T03:15:42.543Z,100450.66
2022-11-24T03:18:11.436Z,100446.34
2022-11-24T03:20:38.381Z,100436.91
2022-11-24T03:23:05.005Z,100439.59
2022-11-24T03:25:31.566Z,100454.06
2022-11-24T03:27:58.356Z,100450.66
2022-11-24T03:30:25.095Z,100451.50
2022-11-24T03:32:53.687Z,100459.78
2022-11-24T03:35:21.740Z,100456.38
2022-11-24T03:37:48.673Z,100443.06
2022-11-24T03:40:15.493Z,100445.06
2022-11-24T03:42:42.097Z,100447.34
2022-11-24T03:45:37.864Z,100454.91
2022-11-24T03:47:56.192Z,100455.22
2022-11-24T03:50:22.811Z,100457.50
2022-11-24T03:52:49.355Z,100455.50
2022-11-24T03:55:16.018Z,100437.06
2022-11-24T03:57:47.950Z,100451.91
2022-11-24T04:00:14.987Z,100459.38
2022-11-24T04:02:41.605Z,100462.50
2022-11-24T04:05:10.935Z,100460.06
2022-11-24T04:07:37.522Z,100463.94
2022-11-24T04:10:04.572Z,100474.50
2022-11-24T04:12:46.335Z,100481.81
2022-11-24T04:15:18.407Z,100467.50
2022-11-24T04:17:46.526Z,100481.66
2022-11-24T04:20:13.506Z,100487.38
2022-11-24T04:22:40.138Z,100479.66
2022-11-24T04:25:10.112Z,100496.72
2022-11-24T04:27:37.836Z,100494.84
2022-11-24T04:30:07.196Z,100502.72
2022-11-24T04:32:36.089Z,100502.41
2022-11-24T04:35:03.179Z,100514.28
2022-11-24T04:37:29.743Z,100518.75
2022-11-24T04:39:56.493Z,100514.16
2022-11-24T04:42:23.032Z,100501.69
2022-11-24T04:44:49.551Z,100515.84
2022-11-24T04:47:18.495Z,100512.41
2022-11-24T04:49:46.894Z,100528.84
2022-11-24T04:52:13.445Z,100511.00
2022-11-24T04:54:42.503Z,100529.03
2022-11-24T04:57:17.090Z,100528.28
2022-11-24T04:59:46.651Z,100522.72
2022-11-24T05:02:15.802Z,100527.88
2022-11-24T05:04:42.448Z,100537.59
2022-11-24T05:07:17.667Z,100541.31
2022-11-24T05:10:03.840Z,100534.00
2022-11-24T05:12:31.165Z,100542.88
2022-11-24T05:15:02.025Z,100554.47
2022-11-24T05:17:30.867Z,100534.00
2022-11-24T05:20:00.288Z,100569.94
2022-11-24T05:22:29.393Z,100576.22
2022-11-24T05:24:56.017Z,100568.34
2022-11-24T05:27:22.938Z,100577.19
2022-11-24T05:29:49.636Z,100569.31
2022-11-24T05:32:16.554Z,100578.94
2022-11-24T05:34:43.367Z,100587.94
2022-11-24T05:37:09.970Z,100586.22
2022-11-24T05:39:37.074Z,100570.63
2022-11-24T05:42:25.863Z,100591.34
2022-11-24T05:44:53.495Z,100592.50
2022-11-24T05:47:20.414Z,100586.03
2022-11-24T05:49:49.860Z,100586.50
2022-11-24T05:52:16.694Z,100612.97
2022-11-24T05:54:43.267Z,100613.84
2022-11-24T05:57:13.235Z,100619.28
2022-11-24T05:59:39.887Z,100621.84
2022-11-24T06:02:10.214Z,100620.81
2022-11-24T06:04:37.676Z,100623.53
2022-11-24T06:07:07.517Z,100630.00
2022-11-24T06:09:36.400Z,100631.56
2022-11-24T06:12:03.501Z,100640.59
2022-11-24T06:14:30.115Z,100634.28
2022-11-24T06:16:56.727Z,100643.44
2022-11-24T06:19:25.594Z,100640.88
2022-11-24T06:21:52.183Z,100637.41
2022-11-24T06:24:18.773Z,100654.00
2022-11-24T06:26:45.281Z,100650.88
2022-11-24T06:29:11.855Z,100660.88
2022-11-24T06:31:41.438Z,100671.44
2022-11-24T06:34:11.454Z,100665.44
2022-11-24T06:36:41.613Z,100661.94
2022-11-24T06:39:08.451Z,100676.28
2022-11-24T06:41:35.033Z,100690.00
2022-11-24T06:44:04.886Z,100691.78
2022-11-24T06:46:31.828Z,100688.78
2022-11-24T06:48:59.780Z,100711.69
2022-11-24T06:51:27.155Z,100710.94
2022-11-24T06:53:54.124Z,100722.56
2022-11-24T06:56:21.774Z,100723.69
2022-11-24T06:58:50.528Z,100736.53
2022-11-24T07:01:19.708Z,100736.81
2022-11-24T07:03:48.147Z,100743.63
2022-11-24T07:06:16.160Z,100744.09
2022-11-24T07:09:18.119Z,100712.53
2022-11-24T07:11:44.905Z,100762.69
2022-11-24T07:14:11.721Z,100769.00
2022-11-24T07:16:39.102Z,100759.91
2022-11-24T07:19:05.830Z,100777.88
2022-11-24T07:21:32.435Z,100762.75
2022-11-24T07:23:59.150Z,100788.59
2022-11-24T07:26:26.722Z,100799.78
2022-11-24T07:28:55.885Z,100802.38
2022-11-24T07:31:25.402Z,100804.06
2022-11-24T07:33:53.757Z,100807.19
2022-11-24T07:36:25.630Z,100810.16
2022-11-24T07:38:54.582Z,100809.06
2022-11-24T07:41:21.362Z,100809.94
2022-11-24T07:43:48.743Z,100819.66
2022-11-24T07:46:17.940Z,100822.13
2022-11-24T07:48:44.944Z,100826.56
2022-11-24T07:51:11.791Z,100824.66
2022-11-24T07:53:38.657Z,100840.44
2022-11-24T07:56:06.535Z,100832.28
2022-11-24T07:58:36.024Z,100849.78
2022-11-24T08:01:14.688Z,100846.53
2022-11-24T08:03:44.905Z,100842.47
2022-11-24T08:06:32.569Z,100857.84
2022-11-24T08:08:59.894Z,100861.41
2022-11-24T08:11:27.379Z,100863.13
2022-11-24T08:13:56.201Z,100869.66
2022-11-24T08:16:25.323Z,100872.81
2022-11-24T08:18:55.491Z,100882.94
2022-11-24T08:21:25.373Z,100863.38
2022-11-24T08:23:56.288Z,100892.22
2022-11-24T08:26:25.063Z,100892.47
2022-11-24T08:28:57.250Z,100891.91
2022-11-24T08:31:27.324Z,100892.13
2022-11-24T08:33:55.704Z,100900.41
2022-11-24T08:36:25.387Z,100897.25
2022-11-24T08:38:56.902Z,100903.53
2022-11-24T08:41:24.090Z,100903.81
2022-11-24T08:43:51.131Z,100916.41
2022-11-24T08:46:19.371Z,100910.25
2022-11-24T08:48:50.418Z,100908.91
2022-11-24T08:51:19.860Z,100932.00
2022-11-24T08:53:48.786Z,100932.84
2022-11-24T08:56:15.502Z,100923.25
2022-11-24T08:58:42.586Z,100930.13
2022-11-24T09:01:17.472Z,100935.56
2022-11-24T09:03:50.423Z,100937.16
2022-11-24T09:06:22.772Z,100944.19
2022-11-24T09:08:53.897Z,100947.66
2022-11-24T09:11:20.929Z,100949.63
2022-11-24T09:13:47.824Z,100954.09
2022-11-24T09:16:17.225Z,100957.53
2022-11-24T09:18:46.634Z,100949.28
2022-11-24T09:21:19.364Z,100966.91
2022-11-24T09:23:48.688Z,100947.13
2022-11-24T09:26:23.122Z,100961.25
2022-11-24T09:28:54.609Z,100973.72
2022-11-24T09:31:24.090Z,100979.75
2022-11-24T09:33:51.529Z,100969.63
2022-11-24T09:36:19.381Z,100978.94
2022-11-24T09:38:46.289Z,100989.28
2022-11-24T09:41:34.303Z,100982.56
2022-11-24T09:44:25.873Z,100994.88
2022-11-24T09:47:20.919Z,100998.19
2022-11-24T09:49:54.466Z,100999.06
2022-11-24T09:52:33.325Z,101006.50
2022-11-24T09:55:02.680Z,101003.22
2022-11-24T09:57:37.512Z,101008.38
2022-11-24T10:00:12.581Z,101008.81
2022-11-24T10:02:41.907Z,101019.59
2022-11-24T10:05:08.781Z,101014.56
2022-11-24T10:07:45.424Z,101030.78
2022-11-24T10:10:24.632Z,101032.94
2022-11-24T10:13:25.238Z,101021.91
2022-11-24T10:16:30.211Z,101046.16
2022-11-24T10:19:34.466Z,101041.28
2022-11-24T10:22:14.964Z,101046.59
2022-11-24T10:25:09.293Z,101048.34
2022-11-24T10:27:41.813Z,101040.59
2022-11-24T10:30:21.029Z,101050.94
2022-11-24T10:33:04.928Z,101056.38
2022-11-24T10:35:47.284Z,101059.53
2022-11-24T10:38:37.341Z,101062.69
2022-11-24T10:41:12.731Z,101055.22
2022-11-24T10:43:42.351Z,101056.38
2022-11-24T10:46:17.169Z,101061.66
2022-11-24T10:48:49.807Z,101068.09
2022-11-24T10:51:28.822Z,101062.78
2022-11-24T10:54:02.586Z,101055.19
2022-11-24T10:56:39.988Z,101058.19
2022-11-24T10:59:39.519Z,101069.22
2022-11-24T11:02:32.910Z,101065.03
2022-11-24T11:05:30.332Z,101071.78
2022-11-24T11:08:35.522Z,101056.94
2022-11-24T11:11:21.275Z,101070.56
2022-11-24T11:14:01.655Z,101049.16
2022-11-24T11:16:53.709Z,101061.34
2022-11-24T11:19:58.501Z,101048.22
2022-11-24T11:22:29.867Z,101052.25
2022-11-24T11:25:22.314Z,101052.06
2022-11-24T11:27:49.141Z,101058.91
2022-11-24T11:35:49.406Z,101047.31
2022-11-24T11:38:16.047Z,101049.59
2022-11-24T11:40:47.926Z,101056.91
2022-11-24T11:43:23.906Z,101057.63
2022-11-24T11:46:02.396Z,101062.94
2022-11-24T11:48:43.145Z,101066.06
2022-11-24T11:51:25.894Z,101068.25
2022-11-24T11:54:07.765Z,101068.97
2022-11-24T11:56:44.386Z,101060.59
2022-11-24T11:59:13.970Z,101059.44
2022-11-24T12:02:05.418Z,101062.16
2022-11-24T12:04:44.580Z,101066.13
2022-11-24T12:07:29.353Z,101073.03
2022-11-24T12:10:10.876Z,101059.19
2022-11-24T12:12:50.818Z,101036.19
2022-11-24T12:15:20.335Z,101058.34
2022-11-24T12:18:04.760Z,101065.34
2022-11-24T12:20:53.228Z,101063.16
2022-11-24T12:24:01.274Z,101065.91
2022-11-24T12:26:37.982Z,101058.94
2022-11-24T12:29:32.789Z,101062.06
2022-11-24T12:32:21.752Z,101071.69
2022-11-24T12:34:51.013Z,101065.28
2022-11-24T12:37:50.079Z,101056.81
2022-11-24T12:40:35.414Z,101071.72
2022-11-24T12:43:11.911Z,101069.75
2022-11-24T12:45:44.288Z,101073.72
2022-11-24T12:48:20.820Z,101069.28
2022-11-24T12:50:50.343Z,101077.50
2022-11-24T12:53:32.302Z,101068.91
2022-11-24T12:56:26.661Z,101071.81
2022-11-24T12:58:53.246Z,101074.56
2022-11-24T13:01:32.622Z,101074.34
2022-11-24T13:04:32.642Z,101070.72
2022-11-24T13:07:18.746Z,101076.19
2022-11-24T13:10:46.893Z,101076.66
2022-11-24T13:13:17.559Z,101070.66
2022-11-24T13:18:46.747Z,101080.63
2022-11-24T13:21:47.320Z,101073.31
2022-11-24T13:24:17.326Z,101078.25
2022-11-24T13:26:49.386Z,101068.22
2022-11-24T13:29:28.384Z,101069.19
2022-11-24T13:31:56.423Z,101054.81
2022-11-24T13:34:42.090Z,101069.38
2022-11-24T13:37:35.701Z,101073.75
2022-11-24T13:40:14.653Z,101074.72
2022-11-24T13:43:06.210Z,101072.84
2022-11-24T13:45:40.468Z,101072.63
2022-11-24T13:48:38.115Z,101073.41
2022-11-24T13:51:13.045Z,101073.88
2022-11-24T13:53:47.124Z,101063.91
2022-11-24T13:56:13.848Z,101075.00
2022-11-24T13:58:50.959Z,101070.00
2022-11-24T14:01:45.998Z,101069.19
2022-11-24T14:04:32.522Z,101063.03
2022-11-24T14:07:09.638Z,101058.91
2022-11-24T14:09:41.648Z,101051.16
2022-11-24T14:12:15.485Z,101059.81
2022-11-24T14:14:44.842Z,101054.97
2022-11-24T14:17:20.570Z,101054.03
2022-11-24T14:19:50.875Z,101053.59
2022-11-24T14:23:01.058Z,101050.59
2022-11-24T14:25:30.808Z,101039.88
2022-11-24T14:27:59.299Z,101030.34
2022-11-24T14:30:26.457Z,101048.88
2022-11-24T14:32:57.430Z,101046.28
2022-11-24T14:35:27.363Z,101039.94
2022-11-24T14:37:54.217Z,101051.50
2022-11-24T14:40:39.314Z,101055.97
2022-11-24T14:43:18.014Z,101045.53
2022-11-24T14:45:56.139Z,101053.03
2022-11-24T14:48:29.499Z,101061.69
2022-11-24T14:51:07.827Z,101060.72
2022-11-24T14:53:37.676Z,101062.28
2022-11-24T14:56:26.583Z,101080.72
2022-11-24T14:58:54.286Z,101070.66
2022-11-24T15:01:22.610Z,101072.69
2022-11-24T15:04:17.861Z,101075.16
2022-11-24T15:07:05.622Z,101077.59
2022-11-24T15:09:50.647Z,101071.00
2022-11-24T15:12:54.872Z,101070.00
2022-11-24T15:15:26.543Z,101075.91
2022-11-24T15:17:57.392Z,101071.00
2022-11-24T15:20:23.873Z,101086.53
2022-11-24T15:22:52.439Z,101091.44
2022-11-24T15:25:33.974Z,101084.09
2022-11-24T15:28:00.952Z,101083.38
2022-11-24T15:30:27.845Z,101088.28
2022-11-24T15:32:58.926Z,101071.59
2022-11-24T15:35:29.476Z,101091.44
2022-11-24T15:37:56.082Z,101079.31
2022-11-24T15:40:22.755Z,101076.03
2022-11-24T15:43:03.431Z,101087.06
2022-11-24T15:45:34.306Z,101092.09
2022-11-24T15:48:00.804Z,101095.56
2022-11-24T15:50:27.375Z,101094.25
2022-11-24T15:52:54.065Z,101090.63
2022-11-24T15:55:24.816Z,101090.06
2022-11-24T15:57:51.417Z,101075.41
2022-11-24T16:00:23.606Z,101072.19
2022-11-24T16:02:50.274Z,101072.72
2022-11-24T16:05:17.824Z,101072.19
2022-11-24T16:07:44.827Z,101075.28
2022-11-24T16:10:31.248Z,101081.72
2022-11-24T16:12:57.893Z,101077.25
2022-11-24T16:15:24.467Z,101075.53
2022-11-24T16:17:51.356Z,101076.59
2022-11-24T16:20:18.081Z,101082.84
2022-11-24T16:22:44.871Z,101079.97
2022-11-24T16:25:12.406Z,101092.44
2022-11-24T16:27:39.051Z,101093.34
2022-11-24T16:30:07.015Z,101092.94
2022-11-24T16:32:36.275Z,101087.53
2022-11-24T16:35:03.340Z,101084.16
2022-11-24T16:37:30.045Z,101093.16
2022-11-24T16:39:57.548Z,101093.28
2022-11-24T16:42:25.115Z,101090.69
2022-11-24T16:44:52.596Z,101081.91
2022-11-24T16:47:19.677Z,101087.50
2022-11-24T16:49:49.468Z,101087.63
2022-11-24T16:52:17.257Z,101086.06
2022-11-24T16:54:46.485Z,101087.19
2022-11-24T16:57:15.119Z,101073.13
2022-11-24T16:59:46.032Z,101076.53
2022-11-24T17:02:13.323Z,101095.31
2022-11-24T17:04:39.974Z,101083.09
2022-11-24T17:07:07.999Z,101085.69
2022-11-24T17:09:40.520Z,101091.88
2022-11-24T17:12:07.913Z,101086.00
2022-11-24T17:14:34.869Z,101085.63
2022-11-24T17:17:01.918Z,101082.13
2022-11-24T17:19:31.794Z,101087.34
2022-11-24T17:22:00.741Z,101092.72
2022-11-24T17:24:27.427Z,101092.25
2022-11-24T17:26:54.008Z,101098.38
2022-11-24T17:29:22.845Z,101101.41
2022-11-24T17:31:52.156Z,101108.69
2022-11-24T17:34:19.027Z,101102.47
2022-11-24T17:36:47.814Z,101099.59
2022-11-24T17:39:14.445Z,101089.91
2022-11-24T17:41:41.294Z,101097.13
2022-11-24T17:44:10.725Z,101102.41
2022-11-24T17:46:39.841Z,101094.78
2022-11-24T17:49:13.092Z,101093.56
2022-11-24T17:51:40.060Z,101098.16
2022-11-24T17:54:31.283Z,101101.03
2022-11-24T17:56:53.328Z,101092.84
2022-11-24T17:59:19.978Z,101093.63
2022-11-24T18:01:46.779Z,101096.88
2022-11-24T18:04:15.975Z,101089.16
2022-11-24T18:06:42.641Z,101083.38
2022-11-24T18:09:11.942Z,101074.03
2022-11-24T18:11:38.536Z,101087.38
2022-11-24T18:14:05.157Z,101077.72
2022-11-24T18:16:33.585Z,101068.97
2022-11-24T18:19:09.637Z,101066.66
2022-11-24T18:21:38.459Z,101054.03
2022-11-24T18:24:08.412Z,101069.72
2022-11-24T18:26:35.051Z,101075.59
2022-11-24T18:29:04.032Z,101082.03
2022-11-24T18:31:35.471Z,101082.69
2022-11-24T18:34:04.268Z,101073.34
2022-11-24T18:36:33.609Z,101081.50
2022-11-24T18:39:01.433Z,101080.94
2022-11-24T18:41:27.967Z,101087.59
2022-11-24T18:43:54.520Z,101080.84
2022-11-24T18:46:23.341Z,101088.13
2022-11-24T18:48:51.982Z,101087.78
2022-11-24T18:51:18.824Z,101063.25
2022-11-24T18:53:46.635Z,101081.91
2022-11-24T18:56:17.290Z,101089.59
2022-11-24T18:58:44.576Z,101081.00
2022-11-24T19:01:15.579Z,101085.41
2022-11-24T19:03:49.031Z,101078.78
2022-11-24T19:06:33.940Z,101077.88
2022-11-24T19:09:08.265Z,101065.66
2022-11-24T19:11:37.148Z,101072.75
2022-11-24T19:14:06.373Z,101067.84
2022-11-24T19:16:34.009Z,101065.13
2022-11-24T19:19:02.682Z,101067.84
2022-11-24T19:21:37.708Z,101071.09
2022-11-24T19:24:05.999Z,101065.31
2022-11-24T19:26:35.080Z,101051.06
2022-11-24T19:29:02.188Z,101068.69
2022-11-24T19:31:28.791Z,101043.97
2022-11-24T19:33:57.981Z,101068.63
2022-11-24T19:36:26.057Z,101069.81
2022-11-24T19:38:55.012Z,101067.16
2022-11-24T19:41:26.338Z,101080.28
2022-11-24T19:43:56.702Z,101062.66
2022-11-24T19:46:28.001Z,101058.00
2022-11-24T19:48:57.868Z,101060.78
2022-11-24T19:51:27.235Z,101068.94
2022-11-24T19:53:56.899Z,101056.38
2022-11-24T19:56:25.279Z,101067.09
2022-11-24T19:58:53.209Z,101068.72
2022-11-24T20:01:24.647Z,101067.53
2022-11-24T20:03:55.941Z,101063.19
2022-11-24T20:06:24.830Z,101066.16
2022-11-24T20:08:53.842Z,101053.16
2022-11-24T20:11:21.465Z,101071.06
2022-11-24T20:13:49.797Z,101065.41
2022-11-24T20:16:26.071Z,101069.34
2022-11-24T20:18:55.217Z,101056.56
2022-11-24T20:21:24.105Z,101061.13
2022-11-24T20:23:59.616Z,101055.59
2022-11-24T20:26:29.029Z,101054.63
2022-11-24T20:28:56.994Z,101072.00
2022-11-24T20:31:27.169Z,101061.88
2022-11-24T20:33:53.796Z,101059.88
2022-11-24T20:36:25.389Z,101062.34
2022-11-24T20:38:53.337Z,101063.19
2022-11-24T20:41:28.657Z,101057.59
2022-11-24T20:44:00.340Z,101055.75
2022-11-24T20:46:34.590Z,101057.34
2022-11-24T20:49:03.522Z,101055.94
2022-11-24T20:51:33.357Z,101058.53
2022-11-24T20:54:08.218Z,101059.28
2022-11-24T20:56:37.421Z,101049.66
2022-11-24T20:59:13.663Z,101052.50
2022-11-24T21:01:42.786Z,101060.53
2022-11-24T21:04:13.638Z,101057.22
2022-11-24T21:06:44.908Z,101045.88
2022-11-24T21:09:11.702Z,101055.88
2022-11-24T21:11:39.323Z,101052.41
2022-11-24T21:14:11.305Z,101050.53
2022-11-24T21:16:40.232Z,101049.69
2022-11-24T21:19:12.740Z,101053.78
2022-11-24T21:21:42.830Z,101020.44
2022-11-24T21:24:14.586Z,101039.03
2022-11-24T21:26:47.521Z,101044.09
2022-11-24T21:29:17.169Z,101031.88
2022-11-24T21:31:43.840Z,101035.06
2022-11-24T21:34:15.092Z,101027.19
2022-11-24T21:36:45.001Z,101029.38
2022-11-24T21:39:14.024Z,101012.34
2022-11-24T21:41:43.242Z,101020.13
2022-11-24T21:44:11.677Z,101017.88
2022-11-24T21:46:44.149Z,101010.41
2022-11-24T21:49:14.681Z,101016.56
2022-11-24T21:51:41.243Z,101011.72
2022-11-24T21:54:08.018Z,101009.19
2022-11-24T21:56:34.545Z,101008.84
2022-11-24T21:59:03.452Z,100992.22
2022-11-24T22:01:30.115Z,101002.25
2022-11-24T22:03:57.005Z,101000.50
2022-11-24T22:06:23.996Z,101001.88
2022-11-24T22:08:50.594Z,101010.78
2022-11-24T22:11:22.464Z,100993.59
2022-11-24T22:13:50.059Z,100989.91
2022-11-24T22:16:19.094Z,100993.47
2022-11-24T22:18:46.347Z,100992.63
2022-11-24T22:21:22.447Z,100991.63
2022-11-24T22:23:52.448Z,100984.97
2022-11-24T22:26:22.403Z,101003.22
2022-11-24T22:28:49.252Z,100997.66
2022-11-24T22:31:18.170Z,100984.06
2022-11-24T22:33:45.764Z,100997.97
2022-11-24T22:36:14.173Z,100986.69
2022-11-24T22:38:41.195Z,100989.03
2022-11-24T22:41:10.618Z,100981.44
2022-11-24T22:43:38.595Z,100977.47
2022-11-24T22:46:06.909Z,100980.31
2022-11-24T22:48:35.935Z,100987.66
2022-11-24T22:51:07.374Z,100983.81
2022-11-24T22:53:34.249Z,100982.66
2022-11-24T22:56:09.494Z,100983.41
2022-11-24T22:58:37.035Z,100980.41
2022-11-24T23:01:11.720Z,100974.69
2022-11-24T23:03:39.134Z,100985.00
2022-11-24T23:06:08.566Z,100978.44
2022-11-24T23:08:36.104Z,100976.44
2022-11-24T23:11:09.054Z,100990.63
2022-11-24T23:13:38.948Z,100986.78
2022-11-24T23:16:10.854Z,100982.19
2022-11-24T23:18:37.764Z,100985.50
2022-11-24T23:21:27.482Z,100984.50
2022-11-24T23:23:54.598Z,100981.75
2022-11-24T23:26:24.563Z,100973.47
2022-11-24T23:28:51.157Z,100984.22
2022-11-24T23:31:20.354Z,100969.88
2022-11-24T23:33:47.608Z,100976.75
2022-11-24T23:36:18.759Z,100972.19
2022-11-24T23:38:48.441Z,100970.31
2022-11-24T23:41:23.334Z,100983.94
2022-11-24T23:43:50.198Z,100964.75
2022-11-24T23:46:22.805Z,100966.88
2022-11-24T23:48:51.873Z,100956.72
2022-11-24T23:51:32.845Z,100948.09
2022-11-24T23:54:00.299Z,100943.38
2022-11-24T23:56:32.930Z,100945.25
2022-11-24T23:59:01.029Z,100948.53
